-> Other stations

1455

Speed(max): 0.5(1.6)knots
Direction:304° ( NW)
Temperature: 26.1°C
Arrived: 2026-09-01 19:37:14 CEST

Past data:
hh:mmknots
Dir (°)
°C
19:35 1.1 2.2 NW(304) 26.3
19:33 1.1 1.6 NW(304) 26.6
19:31 1.6 2.2 NW(304) 26.8
19:29 1.6 2.2 WNW(303) 27.0
19:27 1.6 2.2 NW(304) 27.2
19:25 2.2 2.7 NW(304) 27.6
19:23 2.2 2.7 NW(304) 27.8
19:21 1.6 2.7 WNW(303) 28.0
19:19 1.6 2.2 NW(304) 28.3
19:17 1.6 2.2 NW(304) 28.7
19:15 1.6 2.7 NW(304) 29.1
19:13 2.2 2.7 NW(304) 29.1
19:11 2.2 3.8 NW(304) 29.1
19:09 2.2 3.8 NW(304) 29.2
15 min. averages:
hh:mmknots
Dir (°)
°C
19:30 1.6 2.7 NW(304) 28.0
19:15 2.2 3.8 NW(304) 29.4
19:00 2.7 5.4 NNW(339) 29.7
18:45 3.8 5.4 N(353) 29.9
18:30 3.8 5.4 N(355) 30.1
18:15 4.9 7 N(1) 30.2
18:00 4.3 7 NNE(24) 30.2
17:45 4.3 7.6 NNE(33) 29.9
17:30 4.3 5.9 NE(45) 30.3
17:15 5.4 7.6 ENE(58) 30.5
17:00 5.4 7.6 ENE(57) 30.6
16:45 4.9 7 NE(53) 30.3
16:30 4.3 5.9 NE(48) 30.2
16:15 4.9 5.9 NE(43) 29.7
16:00 5.9 8.6 NE(39) 29.6
Stations at HR:
1455
-> Other regions

Desktop view
Data provided by Holfuy.
© Holfuy Weather 2026